SBCR/CMG METAR and TAF weather

Enter ICAO airport designator
Station Type Date Time Source
SBCR METAR 2020/09/17 21:00 UTC NOAA

SBCR 172100Z 19010KT 150V230 7000 NSC 33/18 Q1008


Station Type Date Time Source
SBCR Decoded METAR 2020/09/17 21:00 UTC NOAA

Corumba, Brazil (SBCR) 19-05S 057-30W
Sep 17, 2020 - 05:00 PM EDT / 2020.09.17 2100 UTC
Wind: from the S (190 degrees) at 12 MPH (10 KT) (direction variable):0
Visibility: 4 mile(s):0
Temperature: 91 F (33 C)
Dew Point: 64 F (18 C)
Relative Humidity: 41%
Pressure (altimeter): 29.77 in. Hg (1008 hPa)
ob: SBCR 172100Z 19010KT 150V230 7000 NSC 33/18 Q1008
cycle: 21

Station Type Date Time Source
SBCR TAF 2020/09/18 06:27 UTC NOAA

TAF SBCR 180200Z 1806/1906 20008KT 7000 NSC TN20/1809Z TX38/1818Z
TEMPO 1806/1811 13005KT
BECMG 1811/1813 23007KT
BECMG 1815/1817 21007KT
BECMG 1900/1902 17003KT
RMK PHH

Example: see airport list